createdAt,value
2022-12-23T00:02:25.840Z,98578.17
2022-12-23T00:05:31.370Z,98581.55
2022-12-23T00:08:37.726Z,98586.89
2022-12-23T00:11:59.389Z,98589.71
2022-12-23T00:15:07.312Z,98589.10
2022-12-23T00:18:09.330Z,98593.98
2022-12-23T00:21:12.560Z,98594.71
2022-12-23T00:24:14.245Z,98592.66
2022-12-23T00:27:15.831Z,98592.56
2022-12-23T00:30:17.597Z,98594.08
2022-12-23T00:33:26.325Z,98594.30
2022-12-23T00:36:29.674Z,98597.61
2022-12-23T00:39:54.807Z,98599.77
2022-12-23T00:42:56.943Z,98603.29
2022-12-23T00:45:58.896Z,98608.73
2022-12-23T00:49:19.392Z,98610.52
2022-12-23T00:52:21.827Z,98608.02
2022-12-23T00:55:23.605Z,98613.71
2022-12-23T00:58:26.628Z,98616.95
2022-12-23T01:01:47.049Z,98621.39
2022-12-23T01:05:08.022Z,98619.92
2022-12-23T01:08:11.913Z,98621.67
2022-12-23T01:11:13.683Z,98623.45
2022-12-23T01:14:15.730Z,98631.20
2022-12-23T01:17:17.632Z,98632.05
2022-12-23T01:20:19.579Z,98630.13
2022-12-23T01:23:21.579Z,98632.59
2022-12-23T01:26:23.433Z,98629.00
2022-12-23T01:29:25.631Z,98625.10
2022-12-23T01:32:27.432Z,98629.96
2022-12-23T01:35:29.169Z,98629.48
2022-12-23T01:38:30.847Z,98627.73
2022-12-23T01:42:12.667Z,98630.94
2022-12-23T01:45:25.330Z,98627.33
2022-12-23T01:48:27.473Z,98626.14
2022-12-23T01:51:29.968Z,98628.94
2022-12-23T01:54:31.903Z,98629.83
2022-12-23T01:57:34.465Z,98620.96
2022-12-23T02:00:55.352Z,98617.52
2022-12-23T02:04:00.428Z,98618.35
2022-12-23T02:07:21.838Z,98617.54
2022-12-23T02:10:26.601Z,98613.56
2022-12-23T02:14:05.323Z,98611.40
2022-12-23T02:17:17.888Z,98617.55
2022-12-23T02:20:47.493Z,98628.47
2022-12-23T02:24:11.709Z,98633.96
2022-12-23T02:27:32.365Z,98639.96
2022-12-23T02:30:48.398Z,98637.48
2022-12-23T02:34:36.515Z,98639.70
2022-12-23T02:37:44.392Z,98637.61
2022-12-23T02:40:51.892Z,98635.84
2022-12-23T02:44:01.275Z,98635.23
2022-12-23T02:47:11.319Z,98635.04
2022-12-23T02:50:20.482Z,98643.08
2022-12-23T02:53:27.661Z,98642.80
2022-12-23T02:56:33.265Z,98639.16
2022-12-23T02:59:46.255Z,98637.88
2022-12-23T03:02:49.090Z,98639.66
2022-12-23T03:05:51.547Z,98642.33
2022-12-23T03:08:56.661Z,98644.73
2022-12-23T03:12:01.842Z,98643.71
2022-12-23T03:15:22.441Z,98647.21
2022-12-23T03:18:56.274Z,98654.08
2022-12-23T03:22:20.282Z,98656.80
2022-12-23T03:25:26.353Z,98664.52
2022-12-23T03:28:36.414Z,98665.56
2022-12-23T03:31:39.712Z,98669.05
2022-12-23T03:34:45.333Z,98669.19
2022-12-23T03:37:49.875Z,98670.15
2022-12-23T03:40:58.354Z,98669.99
2022-12-23T03:44:07.868Z,98669.88
2022-12-23T03:47:13.587Z,98671.18
2022-12-23T03:50:18.026Z,98673.33
2022-12-23T03:53:26.167Z,98667.05
2022-12-23T03:56:43.637Z,98671.34
2022-12-23T03:59:47.522Z,98668.95
2022-12-23T04:03:03.025Z,98666.90
2022-12-23T04:06:06.554Z,98665.48
2022-12-23T04:09:08.512Z,98659.75
2022-12-23T04:12:10.430Z,98661.58
2022-12-23T04:15:13.364Z,98661.65
2022-12-23T04:18:16.458Z,98663.96
2022-12-23T04:21:18.319Z,98664.16
2022-12-23T04:24:20.040Z,98657.08
2022-12-23T04:27:21.636Z,98656.80
2022-12-23T04:30:27.958Z,98656.48
2022-12-23T04:33:33.322Z,98657.63
2022-12-23T04:36:35.027Z,98657.34
2022-12-23T04:39:36.668Z,98662.74
2022-12-23T04:42:38.429Z,98660.39
2022-12-23T04:45:39.988Z,98662.63
2022-12-23T04:48:41.791Z,98660.25
2022-12-23T04:51:43.395Z,98662.94
2022-12-23T04:54:46.525Z,98662.59
2022-12-23T04:57:48.547Z,98665.63
2022-12-23T05:00:50.480Z,98665.83
2022-12-23T05:03:52.244Z,98665.71
2022-12-23T05:06:53.845Z,98665.16
2022-12-23T05:09:55.654Z,98658.02
2022-12-23T05:12:58.397Z,98659.62
2022-12-23T05:16:00.228Z,98663.75
2022-12-23T05:19:02.080Z,98657.23
2022-12-23T05:22:03.773Z,98654.20
2022-12-23T05:25:06.168Z,98653.90
2022-12-23T05:28:08.124Z,98655.77
2022-12-23T05:31:10.354Z,98652.79
2022-12-23T05:34:12.274Z,98648.05
2022-12-23T05:37:14.109Z,98637.84
2022-12-23T05:40:21.559Z,98634.79
2022-12-23T05:43:25.314Z,98633.66
2022-12-23T05:46:27.512Z,98635.14
2022-12-23T05:49:29.325Z,98631.20
2022-12-23T05:52:30.948Z,98635.14
2022-12-23T05:55:32.759Z,98629.48
2022-12-23T05:58:34.500Z,98626.27
2022-12-23T06:01:36.328Z,98621.45
2022-12-23T06:04:37.942Z,98622.21
2022-12-23T06:07:40.752Z,98627.06
2022-12-23T06:10:42.407Z,98628.08
2022-12-23T06:13:44.279Z,98638.80
2022-12-23T06:16:45.942Z,98646.62
2022-12-23T06:19:47.909Z,98651.92
2022-12-23T06:22:49.706Z,98654.02
2022-12-23T06:25:58.083Z,98655.77
2022-12-23T06:28:59.769Z,98662.23
2022-12-23T06:32:01.512Z,98661.05
2022-12-23T06:35:03.310Z,98663.13
2022-12-23T06:38:10.301Z,98663.60
2022-12-23T06:41:13.703Z,98665.61
2022-12-23T06:44:15.356Z,98664.23
2022-12-23T06:47:17.360Z,98661.25
2022-12-23T06:50:20.152Z,98670.30
2022-12-23T06:53:21.961Z,98673.06
2022-12-23T06:56:23.595Z,98668.23
2022-12-23T06:59:25.283Z,98664.55
2022-12-23T07:02:27.067Z,98662.51
2022-12-23T07:05:36.497Z,98661.52
2022-12-23T07:08:39.270Z,98656.16
2022-12-23T07:11:40.964Z,98657.56
2022-12-23T07:14:42.722Z,98653.51
2022-12-23T07:17:44.301Z,98656.06
2022-12-23T07:20:46.070Z,98656.08
2022-12-23T07:23:48.249Z,98657.30
2022-12-23T07:26:51.076Z,98657.54
2022-12-23T07:29:52.881Z,98659.35
2022-12-23T07:32:54.491Z,98660.13
2022-12-23T07:35:59.850Z,98657.20
2022-12-23T07:39:01.931Z,98657.45
2022-12-23T07:42:33.822Z,98649.50
2022-12-23T07:45:27.660Z,98646.81
2022-12-23T07:48:30.405Z,98651.84
2022-12-23T07:51:32.541Z,98641.52
2022-12-23T07:54:34.251Z,98644.83
2022-12-23T07:57:38.377Z,98642.00
2022-12-23T08:00:40.077Z,98649.51
2022-12-23T08:03:41.889Z,98649.14
2022-12-23T08:06:43.889Z,98647.73
2022-12-23T08:09:45.621Z,98644.48
2022-12-23T08:12:47.236Z,98649.05
2022-12-23T08:15:48.955Z,98642.27
2022-12-23T08:18:50.552Z,98644.45
2022-12-23T08:21:52.232Z,98645.66
2022-12-23T08:24:53.951Z,98646.52
2022-12-23T08:27:55.725Z,98643.45
2022-12-23T08:31:03.415Z,98643.56
2022-12-23T08:34:05.120Z,98644.39
2022-12-23T08:37:06.926Z,98642.82
2022-12-23T08:40:09.270Z,98647.51
2022-12-23T08:43:11.221Z,98641.63
2022-12-23T08:46:13.054Z,98646.58
2022-12-23T08:49:15.053Z,98635.48
2022-12-23T08:52:16.895Z,98632.48
2022-12-23T08:55:18.622Z,98629.77
2022-12-23T08:58:20.537Z,98629.38
2022-12-23T09:01:24.953Z,98624.91
2022-12-23T09:04:26.629Z,98626.20
2022-12-23T09:07:28.502Z,98622.66
2022-12-23T09:10:30.139Z,98618.89
2022-12-23T09:13:35.621Z,98616.66
2022-12-23T09:16:38.643Z,98612.71
2022-12-23T09:19:40.403Z,98612.77
2022-12-23T09:22:42.214Z,98605.29
2022-12-23T09:25:44.275Z,98603.38
2022-12-23T09:28:45.950Z,98598.89
2022-12-23T09:31:47.851Z,98595.20
2022-12-23T09:34:49.659Z,98596.45
2022-12-23T09:37:51.358Z,98590.16
2022-12-23T09:40:53.072Z,98585.91
2022-12-23T09:43:58.895Z,98588.39
2022-12-23T09:47:03.878Z,98586.84
2022-12-23T09:50:32.817Z,98582.35
2022-12-23T09:54:05.724Z,98579.10
2022-12-23T09:57:23.158Z,98577.74
2022-12-23T10:00:25.302Z,98576.56
2022-12-23T10:03:57.186Z,98570.91
2022-12-23T10:07:14.014Z,98567.38
2022-12-23T10:10:37.433Z,98567.77
2022-12-23T10:13:44.534Z,98564.90
2022-12-23T10:16:50.241Z,98558.30
2022-12-23T10:19:53.669Z,98554.58
2022-12-23T10:22:56.089Z,98546.56
2022-12-23T10:25:57.830Z,98539.91
2022-12-23T10:29:19.057Z,98529.49
2022-12-23T10:32:42.464Z,98527.23
2022-12-23T10:36:09.556Z,98526.77
2022-12-23T10:39:21.673Z,98521.75
2022-12-23T10:42:39.642Z,98524.48
2022-12-23T10:45:52.951Z,98515.44
2022-12-23T10:49:15.188Z,98509.52
2022-12-23T10:52:24.201Z,98511.37
2022-12-23T10:55:33.537Z,98505.41
2022-12-23T10:58:40.573Z,98503.88
2022-12-23T11:01:47.708Z,98501.04
2022-12-23T11:04:50.032Z,98499.73
2022-12-23T11:07:51.818Z,98502.24
2022-12-23T11:10:55.113Z,98501.56
2022-12-23T11:13:56.821Z,98501.16
2022-12-23T11:16:58.561Z,98500.45
2022-12-23T11:20:16.597Z,98500.33
2022-12-23T11:23:30.313Z,98498.49
2022-12-23T11:26:32.187Z,98498.55
2022-12-23T11:29:39.317Z,98493.70
2022-12-23T11:32:42.767Z,98490.09
2022-12-23T11:35:44.497Z,98491.20
2022-12-23T11:39:06.490Z,98488.50
2022-12-23T11:42:12.945Z,98487.51
2022-12-23T11:45:23.101Z,98485.11
2022-12-23T11:48:29.714Z,98488.73
2022-12-23T11:51:31.433Z,98491.06
2022-12-23T11:54:34.123Z,98490.88
2022-12-23T11:57:43.015Z,98485.01
2022-12-23T12:00:55.508Z,98485.67
2022-12-23T12:04:01.228Z,98486.53
2022-12-23T12:07:04.239Z,98484.06
2022-12-23T12:10:13.386Z,98486.96
2022-12-23T12:13:52.565Z,98481.77
2022-12-23T12:16:54.552Z,98482.06
2022-12-23T12:20:23.061Z,98485.59
2022-12-23T12:23:29.652Z,98483.95
2022-12-23T12:26:33.876Z,98488.26
2022-12-23T12:29:49.115Z,98489.85
2022-12-23T12:32:53.871Z,98496.83
2022-12-23T12:36:07.783Z,98499.41
2022-12-23T12:39:17.661Z,98498.24
2022-12-23T12:42:28.137Z,98499.71
2022-12-23T12:45:40.078Z,98496.75
2022-12-23T12:48:59.865Z,98496.81
2022-12-23T12:52:26.587Z,98491.96
2022-12-23T12:55:42.318Z,98491.73
2022-12-23T12:58:44.763Z,98495.02
2022-12-23T13:02:28.795Z,98490.27
2022-12-23T13:05:58.993Z,98492.34
2022-12-23T13:09:09.989Z,98493.14
2022-12-23T13:12:20.898Z,98490.71
2022-12-23T13:15:38.864Z,98495.33
2022-12-23T13:18:52.786Z,98494.10
2022-12-23T13:22:01.763Z,98494.72
2022-12-23T13:25:43.911Z,98497.88
2022-12-23T13:29:16.359Z,98499.92
2022-12-23T13:32:41.723Z,98499.52
2022-12-23T13:36:09.831Z,98497.56
2022-12-23T13:39:28.933Z,98491.40
2022-12-23T13:42:34.930Z,98495.63
2022-12-23T13:45:38.640Z,98495.19
2022-12-23T13:49:04.245Z,98497.38
2022-12-23T13:52:37.341Z,98505.27
2022-12-23T13:56:02.534Z,98504.48
2022-12-23T13:59:09.349Z,98505.66
2022-12-23T14:02:36.344Z,98509.13
2022-12-23T14:05:41.110Z,98513.54
2022-12-23T14:08:43.333Z,98515.05
2022-12-23T14:11:45.483Z,98514.25
2022-12-23T14:15:31.952Z,98516.27
2022-12-23T14:19:05.109Z,98518.50
2022-12-23T14:22:32.024Z,98524.27
2022-12-23T14:25:58.031Z,98525.55
2022-12-23T14:29:14.441Z,98527.23
2022-12-23T14:32:24.131Z,98526.90
2022-12-23T14:35:35.653Z,98532.86
2022-12-23T14:39:13.038Z,98539.47
2022-12-23T14:42:33.927Z,98543.27
2022-12-23T14:45:37.328Z,98541.27
2022-12-23T14:48:42.059Z,98542.17
2022-12-23T14:51:43.807Z,98543.06
2022-12-23T14:55:00.352Z,98547.41
2022-12-23T14:58:47.780Z,98550.10
2022-12-23T15:01:52.381Z,98553.38
2022-12-23T15:04:57.041Z,98555.96
2022-12-23T15:07:58.909Z,98555.46
2022-12-23T15:11:00.544Z,98563.83
2022-12-23T15:14:09.610Z,98568.55
2022-12-23T15:17:16.732Z,98568.54
2022-12-23T15:20:25.189Z,98571.12
2022-12-23T15:23:27.291Z,98569.52
2022-12-23T15:26:31.954Z,98566.89
2022-12-23T15:29:33.628Z,98566.23
2022-12-23T15:32:35.318Z,98561.11
2022-12-23T15:35:39.101Z,98564.52
2022-12-23T15:38:40.817Z,98561.84
2022-12-23T15:41:48.309Z,98556.19
2022-12-23T15:44:50.420Z,98557.89
2022-12-23T15:47:52.218Z,98552.78
2022-12-23T15:51:13.851Z,98551.52
2022-12-23T15:54:28.293Z,98549.98
2022-12-23T15:57:30.703Z,98555.58
2022-12-23T16:00:40.654Z,98551.46
2022-12-23T16:03:46.374Z,98554.54
2022-12-23T16:06:49.966Z,98557.66
2022-12-23T16:09:54.897Z,98559.99
2022-12-23T16:12:58.805Z,98556.55
2022-12-23T16:16:20.479Z,98552.88
2022-12-23T16:19:45.319Z,98549.04
2022-12-23T16:22:50.472Z,98554.15
2022-12-23T16:25:53.040Z,98550.23
2022-12-23T16:29:00.432Z,98553.89
2022-12-23T16:32:02.388Z,98555.85
2022-12-23T16:35:12.127Z,98557.94
2022-12-23T16:38:19.341Z,98556.15
2022-12-23T16:41:21.136Z,98565.29
2022-12-23T16:44:22.985Z,98565.67
2022-12-23T16:47:24.802Z,98573.08
2022-12-23T16:50:26.480Z,98572.10
2022-12-23T16:53:28.542Z,98568.32
2022-12-23T16:56:34.424Z,98564.70
2022-12-23T16:59:37.273Z,98558.30
2022-12-23T17:02:39.121Z,98559.44
2022-12-23T17:05:40.969Z,98561.41
2022-12-23T17:08:42.669Z,98566.61
2022-12-23T17:11:49.954Z,98565.10
2022-12-23T17:14:51.647Z,98560.57
2022-12-23T17:17:54.136Z,98562.23
2022-12-23T17:20:55.932Z,98556.04
2022-12-23T17:24:00.460Z,98549.14
2022-12-23T17:27:02.339Z,98543.16
2022-12-23T17:30:04.361Z,98535.98
2022-12-23T17:33:08.715Z,98528.70
2022-12-23T17:36:11.350Z,98517.52
2022-12-23T17:39:13.010Z,98519.42
2022-12-23T17:42:25.285Z,98529.30
2022-12-23T17:45:30.061Z,98530.98
2022-12-23T17:48:33.021Z,98536.41
2022-12-23T17:51:34.852Z,98544.60
2022-12-23T17:54:36.480Z,98543.93
2022-12-23T17:57:38.120Z,98541.77
2022-12-23T18:00:39.849Z,98536.21
2022-12-23T18:03:41.557Z,98540.40
2022-12-23T18:06:43.309Z,98545.25
2022-12-23T18:09:45.251Z,98552.19
2022-12-23T18:12:50.378Z,98552.48
2022-12-23T18:15:52.770Z,98551.64
2022-12-23T18:18:54.630Z,98551.63
2022-12-23T18:21:56.465Z,98557.98
2022-12-23T18:24:59.536Z,98554.23
2022-12-23T18:28:01.523Z,98556.80
2022-12-23T18:31:03.179Z,98557.08
2022-12-23T18:34:04.918Z,98561.17
2022-12-23T18:37:09.068Z,98568.27
2022-12-23T18:40:11.128Z,98566.63
2022-12-23T18:43:22.547Z,98566.91
2022-12-23T18:46:24.418Z,98574.58
2022-12-23T18:49:26.327Z,98583.46
2022-12-23T18:52:27.994Z,98581.60
2022-12-23T18:55:30.437Z,98584.28
2022-12-23T18:58:32.156Z,98588.00
2022-12-23T19:01:33.812Z,98587.54
2022-12-23T19:04:35.723Z,98589.00
2022-12-23T19:07:37.456Z,98590.09
2022-12-23T19:10:39.236Z,98591.52
2022-12-23T19:13:41.038Z,98586.98
2022-12-23T19:16:49.235Z,98588.27
2022-12-23T19:19:53.183Z,98590.52
2022-12-23T19:22:54.811Z,98592.55
2022-12-23T19:25:56.518Z,98597.83
2022-12-23T19:28:58.353Z,98602.64
2022-12-23T19:32:00.087Z,98604.84
2022-12-23T19:35:02.107Z,98604.88
2022-12-23T19:38:03.847Z,98601.38
2022-12-23T19:41:07.320Z,98596.17
2022-12-23T19:44:09.097Z,98597.58
2022-12-23T19:47:10.636Z,98597.26
2022-12-23T19:50:12.447Z,98595.41
2022-12-23T19:53:15.786Z,98591.26
2022-12-23T19:56:21.898Z,98593.36
2022-12-23T19:59:23.747Z,98590.23
2022-12-23T20:02:25.648Z,98592.27
2022-12-23T20:05:27.567Z,98595.16
2022-12-23T20:08:29.439Z,98590.40
2022-12-23T20:11:34.661Z,98593.10
2022-12-23T20:14:36.491Z,98593.11
2022-12-23T20:17:38.194Z,98587.66
2022-12-23T20:20:43.413Z,98586.63
2022-12-23T20:23:45.337Z,98592.97
2022-12-23T20:26:47.591Z,98598.29
2022-12-23T20:29:49.405Z,98602.33
2022-12-23T20:32:51.211Z,98603.17
2022-12-23T20:35:52.827Z,98596.82
2022-12-23T20:38:55.230Z,98598.98
2022-12-23T20:41:57.557Z,98597.30
2022-12-23T20:44:59.254Z,98580.06
2022-12-23T20:48:01.495Z,98580.27
2022-12-23T20:51:05.183Z,98586.77
2022-12-23T20:54:07.381Z,98576.41
2022-12-23T20:57:09.019Z,98574.23
2022-12-23T21:00:10.943Z,98568.97
2022-12-23T21:03:12.663Z,98562.97
2022-12-23T21:06:14.268Z,98566.38
2022-12-23T21:09:16.179Z,98560.71
2022-12-23T21:12:17.881Z,98546.44
2022-12-23T21:15:19.781Z,98548.49
2022-12-23T21:18:21.353Z,98546.48
2022-12-23T21:21:26.536Z,98554.66
2022-12-23T21:24:28.354Z,98552.55
2022-12-23T21:27:29.992Z,98546.77
2022-12-23T21:30:31.722Z,98545.16
2022-12-23T21:33:37.273Z,98546.29
2022-12-23T21:36:39.447Z,98542.77
2022-12-23T21:39:41.224Z,98532.28
2022-12-23T21:42:42.955Z,98536.34
2022-12-23T21:45:44.602Z,98537.08
2022-12-23T21:48:48.046Z,98530.40
2022-12-23T21:51:49.841Z,98526.77
2022-12-23T21:54:51.637Z,98526.92
2022-12-23T21:57:53.290Z,98523.40
2022-12-23T22:00:55.065Z,98523.47
2022-12-23T22:03:56.819Z,98520.45
2022-12-23T22:06:58.474Z,98511.42
2022-12-23T22:10:00.193Z,98507.95
2022-12-23T22:13:01.823Z,98505.09
2022-12-23T22:16:04.513Z,98500.55
2022-12-23T22:19:07.071Z,98497.49
2022-12-23T22:22:09.178Z,98491.05
2022-12-23T22:25:10.742Z,98495.08
2022-12-23T22:28:12.400Z,98505.54
2022-12-23T22:31:27.557Z,98511.58
2022-12-23T22:34:29.241Z,98510.70
2022-12-23T22:37:30.928Z,98505.05
2022-12-23T22:40:32.679Z,98499.40
2022-12-23T22:43:34.383Z,98499.81
2022-12-23T22:46:36.123Z,98498.89
2022-12-23T22:49:37.720Z,98506.59
2022-12-23T22:52:39.441Z,98501.39
2022-12-23T22:55:41.011Z,98498.88
2022-12-23T22:58:43.223Z,98501.34
2022-12-23T23:01:44.941Z,98497.09
2022-12-23T23:04:46.765Z,98494.29
2022-12-23T23:07:48.467Z,98486.11
2022-12-23T23:10:50.205Z,98482.44
2022-12-23T23:13:51.997Z,98481.52
2022-12-23T23:16:53.709Z,98474.84
2022-12-23T23:19:55.554Z,98467.29
2022-12-23T23:22:57.249Z,98464.48
2022-12-23T23:25:58.874Z,98460.05
2022-12-23T23:29:00.601Z,98455.02
2022-12-23T23:32:02.234Z,98453.02
2022-12-23T23:35:10.306Z,98457.05
2022-12-23T23:38:12.580Z,98456.33
2022-12-23T23:41:18.874Z,98457.70
2022-12-23T23:44:24.511Z,98458.90
2022-12-23T23:47:26.082Z,98457.63
2022-12-23T23:50:27.845Z,98451.39
2022-12-23T23:53:29.540Z,98451.88
2022-12-23T23:56:37.831Z,98447.29
2022-12-23T23:59:40.555Z,98445.79
